createdAt,value
2022-10-21T00:00:54.473Z,96905.59
2022-10-21T00:03:56.027Z,96894.16
2022-10-21T00:06:57.589Z,96888.84
2022-10-21T00:09:59.144Z,96905.22
2022-10-21T00:13:00.615Z,96918.31
2022-10-21T00:16:14.954Z,96918.25
2022-10-21T00:19:16.299Z,96919.06
2022-10-21T00:22:17.859Z,96916.84
2022-10-21T00:25:19.629Z,96940.19
2022-10-21T00:28:21.186Z,96956.16
2022-10-21T00:31:23.767Z,96956.38
2022-10-21T00:34:28.582Z,96946.13
2022-10-21T00:37:33.277Z,96951.03
2022-10-21T00:40:35.089Z,96935.66
2022-10-21T00:44:13.714Z,96966.13
2022-10-21T00:47:21.830Z,96963.03
2022-10-21T00:50:30.800Z,96960.59
2022-10-21T00:53:34.981Z,96954.88
2022-10-21T00:56:37.563Z,96930.94
2022-10-21T00:59:44.074Z,96920.91
2022-10-21T01:02:45.898Z,96917.22
2022-10-21T01:05:47.865Z,96906.59
2022-10-21T01:08:49.867Z,96904.94
2022-10-21T01:11:52.104Z,96907.00
2022-10-21T01:18:16.293Z,96890.22
2022-10-21T01:21:47.765Z,96877.13
2022-10-21T01:25:17.200Z,96869.16
2022-10-21T01:28:52.638Z,96864.41
2022-10-21T01:32:02.224Z,96859.88
2022-10-21T01:35:21.714Z,96861.88
2022-10-21T01:38:32.693Z,96859.84
2022-10-21T01:41:42.177Z,96853.91
2022-10-21T01:44:52.908Z,96854.47
2022-10-21T01:47:57.680Z,96856.72
2022-10-21T01:51:05.687Z,96849.72
2022-10-21T01:54:13.010Z,96845.59
2022-10-21T01:57:18.630Z,96846.78
2022-10-21T02:00:20.741Z,96858.03
2022-10-21T02:03:31.177Z,96849.88
2022-10-21T02:06:33.026Z,96849.25
2022-10-21T02:09:34.693Z,96857.84
2022-10-21T02:12:39.622Z,96856.22
2022-10-21T02:15:44.909Z,96857.06
2022-10-21T02:18:46.638Z,96856.88
2022-10-21T02:21:51.853Z,96851.75
2022-10-21T02:24:58.650Z,96852.31
2022-10-21T02:28:00.616Z,96846.41
2022-10-21T02:31:14.358Z,96839.84
2022-10-21T02:34:45.101Z,96845.09
2022-10-21T02:37:59.951Z,96834.03
2022-10-21T02:41:04.580Z,96837.31
2022-10-21T02:44:07.507Z,96833.84
2022-10-21T02:47:09.040Z,96844.72
2022-10-21T02:50:10.789Z,96812.59
2022-10-21T02:53:13.334Z,96822.22
2022-10-21T02:56:14.837Z,96829.59
2022-10-21T02:59:16.393Z,96825.69
2022-10-21T03:02:17.874Z,96847.66
2022-10-21T03:05:19.396Z,96836.16
2022-10-21T03:08:20.961Z,96834.13
2022-10-21T03:11:22.534Z,96831.22
2022-10-21T03:14:24.000Z,96815.72
2022-10-21T03:17:25.650Z,96838.19
2022-10-21T03:20:27.186Z,96832.66
2022-10-21T03:23:28.743Z,96835.75
2022-10-21T03:26:30.198Z,96827.75
2022-10-21T03:29:31.689Z,96819.97
2022-10-21T03:32:33.309Z,96826.94
2022-10-21T03:35:34.866Z,96824.28
2022-10-21T03:38:36.424Z,96832.06
2022-10-21T03:41:38.015Z,96842.72
2022-10-21T03:44:39.573Z,96844.13
2022-10-21T03:47:41.073Z,96833.47
2022-10-21T03:50:42.585Z,96847.59
2022-10-21T03:53:44.167Z,96834.06
2022-10-21T03:56:46.010Z,96836.31
2022-10-21T03:59:47.522Z,96836.31
2022-10-21T04:02:49.428Z,96840.66
2022-10-21T04:05:50.921Z,96840.19
2022-10-21T04:08:52.707Z,96851.28
2022-10-21T04:11:54.345Z,96847.19
2022-10-21T04:14:55.795Z,96850.91
2022-10-21T04:17:57.352Z,96846.59
2022-10-21T04:20:58.874Z,96832.91
2022-10-21T04:24:00.330Z,96834.13
2022-10-21T04:27:01.839Z,96816.28
2022-10-21T04:30:03.855Z,96808.72
2022-10-21T04:33:05.514Z,96820.56
2022-10-21T04:36:07.379Z,96798.66
2022-10-21T04:39:08.905Z,96809.31
2022-10-21T04:42:10.382Z,96787.00
2022-10-21T04:45:11.845Z,96770.22
2022-10-21T04:48:13.710Z,96789.66
2022-10-21T04:51:15.531Z,96797.66
2022-10-21T04:54:17.179Z,96787.59
2022-10-21T04:57:20.434Z,96759.31
2022-10-21T05:00:21.950Z,96775.75
2022-10-21T05:03:23.545Z,96749.56
2022-10-21T05:06:25.102Z,96749.13
2022-10-21T05:09:26.557Z,96747.69
2022-10-21T05:12:28.041Z,96763.47
2022-10-21T05:15:29.569Z,96752.38
2022-10-21T05:18:31.540Z,96746.69
2022-10-21T05:24:53.586Z,96753.41
2022-10-21T05:27:55.039Z,96748.06
2022-10-21T05:30:56.544Z,96756.06
2022-10-21T05:33:58.165Z,96768.19
2022-10-21T05:36:59.656Z,96794.56
2022-10-21T05:40:03.839Z,96743.13
2022-10-21T05:43:05.356Z,96744.19
2022-10-21T05:46:08.591Z,96738.47
2022-10-21T05:49:10.045Z,96749.13
2022-10-21T05:52:12.322Z,96759.56
2022-10-21T05:55:13.775Z,96772.03
2022-10-21T05:58:15.333Z,96767.78
2022-10-21T06:01:17.597Z,96738.91
2022-10-21T06:04:19.167Z,96705.53
2022-10-21T06:07:20.608Z,96689.16
2022-10-21T06:10:25.507Z,96683.00
2022-10-21T06:13:31.109Z,96684.06
2022-10-21T06:16:35.282Z,96673.28
2022-10-21T06:19:36.822Z,96711.09
2022-10-21T06:22:38.441Z,96726.50
2022-10-21T06:25:39.896Z,96733.66
2022-10-21T06:28:43.780Z,96727.75
2022-10-21T06:31:45.775Z,96716.59
2022-10-21T06:34:47.253Z,96704.69
2022-10-21T06:37:48.787Z,96700.59
2022-10-21T06:40:50.263Z,96719.25
2022-10-21T06:43:51.780Z,96728.88
2022-10-21T06:46:54.139Z,96719.91
2022-10-21T06:49:55.835Z,96742.03
2022-10-21T06:52:57.404Z,96716.59
2022-10-21T06:56:08.075Z,96725.81
2022-10-21T06:59:10.290Z,96723.72
2022-10-21T07:02:11.751Z,96724.13
2022-10-21T07:05:13.342Z,96724.72
2022-10-21T07:08:14.909Z,96708.13
2022-10-21T07:11:16.465Z,96698.09
2022-10-21T07:14:17.980Z,96697.88
2022-10-21T07:17:20.501Z,96713.84
2022-10-21T07:20:24.908Z,96721.91
2022-10-21T07:23:26.780Z,96702.66
2022-10-21T07:26:31.318Z,96712.81
2022-10-21T07:29:32.860Z,96746.56
2022-10-21T07:32:37.503Z,96753.94
2022-10-21T07:35:39.062Z,96761.06
2022-10-21T07:38:43.844Z,96782.50
2022-10-21T07:41:54.361Z,96792.41
2022-10-21T07:44:59.913Z,96797.91
2022-10-21T07:48:01.369Z,96812.34
2022-10-21T07:51:08.724Z,96828.56
2022-10-21T07:54:12.849Z,96877.34
2022-10-21T07:57:14.509Z,96889.94
2022-10-21T08:00:15.964Z,96906.78
2022-10-21T08:03:17.928Z,96920.53
2022-10-21T08:06:19.412Z,96889.97
2022-10-21T08:09:21.890Z,96890.56
2022-10-21T08:12:26.825Z,96901.16
2022-10-21T08:15:28.282Z,96903.84
2022-10-21T08:18:29.836Z,96896.16
2022-10-21T08:21:31.486Z,96908.34
2022-10-21T08:24:33.161Z,96906.03
2022-10-21T08:27:35.325Z,96908.41
2022-10-21T08:30:36.985Z,96906.72
2022-10-21T08:33:38.950Z,96901.22
2022-10-21T08:36:40.813Z,96917.59
2022-10-21T08:39:42.268Z,96933.16
2022-10-21T08:42:45.506Z,96925.59
2022-10-21T08:46:05.760Z,96938.91
2022-10-21T08:49:15.624Z,96932.78
2022-10-21T08:52:22.083Z,96927.66
2022-10-21T08:55:30.218Z,96949.44
2022-10-21T08:58:31.977Z,96931.75
2022-10-21T09:01:56.829Z,96945.50
2022-10-21T09:05:10.557Z,96946.63
2022-10-21T09:08:59.973Z,96948.09
2022-10-21T09:12:07.160Z,96958.91
2022-10-21T09:15:24.319Z,96961.88
2022-10-21T09:18:41.752Z,96967.59
2022-10-21T09:22:22.502Z,96977.84
2022-10-21T09:25:32.620Z,96983.53
2022-10-21T09:28:34.854Z,96975.97
2022-10-21T09:31:36.490Z,96977.25
2022-10-21T09:34:47.576Z,96979.53
2022-10-21T09:37:51.518Z,96978.56
2022-10-21T09:41:03.005Z,96971.91
2022-10-21T09:44:04.799Z,96975.16
2022-10-21T09:47:32.460Z,96986.03
2022-10-21T09:50:35.055Z,96988.78
2022-10-21T09:53:53.704Z,96987.88
2022-10-21T09:57:14.176Z,96982.19
2022-10-21T10:00:15.716Z,96977.34
2022-10-21T10:03:33.247Z,96970.00
2022-10-21T10:06:39.160Z,96983.16
2022-10-21T10:09:46.089Z,96985.59
2022-10-21T10:12:55.961Z,96990.47
2022-10-21T10:16:31.350Z,96993.13
2022-10-21T10:19:32.970Z,96988.75
2022-10-21T10:22:35.753Z,96986.22
2022-10-21T10:25:39.377Z,96989.88
2022-10-21T10:31:50.979Z,97010.06
2022-10-21T10:34:57.173Z,97007.63
2022-10-21T10:38:01.421Z,97011.56
2022-10-21T10:41:07.745Z,96998.03
2022-10-21T10:44:20.013Z,97005.34
2022-10-21T10:47:27.931Z,96998.63
2022-10-21T10:50:38.360Z,97008.69
2022-10-21T10:53:39.775Z,97008.69
2022-10-21T10:56:53.363Z,96999.59
2022-10-21T11:00:04.657Z,97012.13
2022-10-21T11:03:14.437Z,97005.75
2022-10-21T11:06:18.344Z,97004.63
2022-10-21T11:09:22.615Z,97007.91
2022-10-21T11:12:26.635Z,97019.00
2022-10-21T11:15:49.203Z,97017.81
2022-10-21T11:18:56.661Z,97021.09
2022-10-21T11:22:39.426Z,97004.25
2022-10-21T11:25:46.620Z,97032.38
2022-10-21T11:28:54.756Z,97009.97
2022-10-21T11:32:26.993Z,97004.06
2022-10-21T11:36:00.481Z,97012.94
2022-10-21T11:39:21.382Z,97005.06
2022-10-21T11:42:31.776Z,97006.16
2022-10-21T11:46:02.957Z,97001.41
2022-10-21T11:49:36.365Z,97003.16
2022-10-21T11:52:44.435Z,97021.22
2022-10-21T11:56:10.271Z,97027.00
2022-10-21T11:59:17.883Z,97028.84
2022-10-21T12:02:30.277Z,97036.19
2022-10-21T12:05:37.556Z,97044.06
2022-10-21T12:08:50.750Z,97052.19
2022-10-21T12:12:06.787Z,97041.88
2022-10-21T12:15:18.976Z,97033.91
2022-10-21T12:18:23.464Z,97048.50
2022-10-21T12:21:27.395Z,97044.25
2022-10-21T12:24:45.048Z,97046.25
2022-10-21T12:27:58.104Z,97063.44
2022-10-21T12:31:37.635Z,97075.72
2022-10-21T12:34:39.318Z,97090.28
2022-10-21T12:38:04.252Z,97090.09
2022-10-21T12:41:21.135Z,97078.84
2022-10-21T12:44:27.675Z,97059.94
2022-10-21T12:47:31.767Z,97081.00
2022-10-21T12:50:34.607Z,97047.94
2022-10-21T12:53:48.645Z,97031.50
2022-10-21T12:56:59.268Z,97023.63
2022-10-21T13:00:22.223Z,97002.13
2022-10-21T13:03:45.604Z,97014.63
2022-10-21T13:07:01.478Z,96978.28
2022-10-21T13:10:05.884Z,97001.56
2022-10-21T13:13:44.908Z,97016.31
2022-10-21T13:16:52.304Z,96996.88
2022-10-21T13:19:56.914Z,96991.00
2022-10-21T13:23:32.123Z,96986.91
2022-10-21T13:26:33.675Z,96989.34
2022-10-21T13:29:38.025Z,96985.94
2022-10-21T13:32:40.296Z,96979.22
2022-10-21T13:35:49.953Z,96984.28
2022-10-21T13:38:55.502Z,96969.06
2022-10-21T13:42:02.263Z,96982.38
2022-10-21T13:45:31.238Z,96987.84
2022-10-21T13:48:41.333Z,96985.84
2022-10-21T13:51:46.703Z,96974.34
2022-10-21T13:54:57.407Z,96964.94
2022-10-21T13:57:58.996Z,96963.13
2022-10-21T14:01:07.454Z,96943.72
2022-10-21T14:04:15.610Z,96933.78
2022-10-21T14:07:19.263Z,96931.63
2022-10-21T14:10:24.529Z,96929.84
2022-10-21T14:13:31.365Z,96933.03
2022-10-21T14:16:37.396Z,96936.25
2022-10-21T14:19:38.937Z,96932.94
2022-10-21T14:22:40.984Z,96929.16
2022-10-21T14:25:42.779Z,96934.41
2022-10-21T14:28:45.990Z,96942.63
2022-10-21T14:31:47.617Z,96944.03
2022-10-21T14:35:21.356Z,96948.31
2022-10-21T14:38:36.070Z,96965.97
2022-10-21T14:41:44.461Z,96955.19
2022-10-21T14:44:48.504Z,96959.81
2022-10-21T14:47:50.513Z,96957.16
2022-10-21T14:50:56.231Z,96955.06
2022-10-21T14:54:05.230Z,96956.72
2022-10-21T14:57:26.836Z,96941.63
2022-10-21T15:00:41.500Z,96956.59
2022-10-21T15:03:49.821Z,96942.44
2022-10-21T15:07:01.607Z,96949.03
2022-10-21T15:10:03.013Z,96938.19
2022-10-21T15:13:18.360Z,96941.53
2022-10-21T15:16:21.064Z,96937.53
2022-10-21T15:19:42.595Z,96932.38
2022-10-21T15:22:48.491Z,96938.53
2022-10-21T15:26:00.443Z,96934.03
2022-10-21T15:29:12.409Z,96928.31
2022-10-21T15:32:26.861Z,96944.91
2022-10-21T15:35:31.027Z,96943.84
2022-10-21T15:38:32.572Z,96957.75
2022-10-21T15:41:34.060Z,96946.56
2022-10-21T15:44:35.900Z,96932.03
2022-10-21T15:47:38.593Z,96940.25
2022-10-21T15:50:44.341Z,96939.84
2022-10-21T15:53:46.008Z,96942.69
2022-10-21T15:56:51.160Z,96945.97
2022-10-21T15:59:52.645Z,96939.88
2022-10-21T16:02:54.124Z,96930.94
2022-10-21T16:05:56.169Z,96941.19
2022-10-21T16:08:57.711Z,96938.91
2022-10-21T16:12:00.656Z,96933.63
2022-10-21T16:15:02.721Z,96919.91
2022-10-21T16:18:11.224Z,96919.44
2022-10-21T16:21:14.592Z,96919.91
2022-10-21T16:24:16.037Z,96918.44
2022-10-21T16:27:31.374Z,96914.97
2022-10-21T16:30:41.938Z,96921.94
2022-10-21T16:33:44.179Z,96913.97
2022-10-21T16:36:45.671Z,96899.81
2022-10-21T16:39:47.361Z,96917.66
2022-10-21T16:42:50.257Z,96912.53
2022-10-21T16:45:51.677Z,96918.25
2022-10-21T16:48:54.121Z,96923.81
2022-10-21T16:51:57.457Z,96924.84
2022-10-21T16:54:58.947Z,96930.97
2022-10-21T16:58:00.402Z,96927.50
2022-10-21T17:01:06.404Z,96924.84
2022-10-21T17:04:08.128Z,96922.81
2022-10-21T17:07:10.920Z,96909.13
2022-10-21T17:10:12.445Z,96916.31
2022-10-21T17:13:13.947Z,96891.56
2022-10-21T17:16:15.843Z,96872.16
2022-10-21T17:19:17.656Z,96874.41
2022-10-21T17:22:19.395Z,96893.19
2022-10-21T17:25:22.762Z,96875.41
2022-10-21T17:28:24.310Z,96898.09
2022-10-21T17:31:28.232Z,96884.00
2022-10-21T17:34:32.727Z,96889.72
2022-10-21T17:37:34.230Z,96870.16
2022-10-21T17:40:35.808Z,96881.16
2022-10-21T17:43:37.451Z,96864.59
2022-10-21T17:46:39.951Z,96862.72
2022-10-21T17:49:41.913Z,96863.56
2022-10-21T17:52:43.527Z,96863.97
2022-10-21T17:55:44.973Z,96891.78
2022-10-21T17:58:50.637Z,96882.59
2022-10-21T18:01:52.229Z,96887.66
2022-10-21T18:05:10.701Z,96888.72
2022-10-21T18:08:12.272Z,96889.72
2022-10-21T18:11:15.893Z,96876.88
2022-10-21T18:14:17.559Z,96869.91
2022-10-21T18:17:19.773Z,96862.59
2022-10-21T18:20:22.588Z,96876.69
2022-10-21T18:23:24.116Z,96856.25
2022-10-21T18:26:28.915Z,96860.50
2022-10-21T18:29:33.156Z,96857.00
2022-10-21T18:32:34.793Z,96855.00
2022-10-21T18:35:37.841Z,96858.06
2022-10-21T18:38:39.867Z,96863.56
2022-10-21T18:41:41.605Z,96849.66
2022-10-21T18:44:43.632Z,96855.41
2022-10-21T18:47:47.331Z,96855.00
2022-10-21T18:50:48.922Z,96852.94
2022-10-21T18:53:52.761Z,96861.94
2022-10-21T18:56:55.021Z,96859.88
2022-10-21T18:59:56.901Z,96891.75
2022-10-21T19:02:58.359Z,96908.94
2022-10-21T19:06:34.077Z,96879.47
2022-10-21T19:09:35.789Z,96883.53
2022-10-21T19:12:37.248Z,96859.03
2022-10-21T19:15:45.066Z,96854.75
2022-10-21T19:18:46.575Z,96863.13
2022-10-21T19:21:48.137Z,96866.03
2022-10-21T19:24:49.608Z,96872.16
2022-10-21T19:27:51.049Z,96862.72
2022-10-21T19:30:52.704Z,96869.25
2022-10-21T19:33:54.500Z,96871.31
2022-10-21T19:36:56.154Z,96869.03
2022-10-21T19:39:57.975Z,96859.00
2022-10-21T19:42:59.661Z,96865.16
2022-10-21T19:46:03.052Z,96861.25
2022-10-21T19:49:06.428Z,96862.88
2022-10-21T19:52:08.038Z,96871.69
2022-10-21T19:55:09.570Z,96922.84
2022-10-21T19:58:14.301Z,96957.66
2022-10-21T20:01:21.399Z,96959.91
2022-10-21T20:04:24.704Z,96980.00
2022-10-21T20:07:26.227Z,96995.50
2022-10-21T20:10:28.072Z,96996.78
2022-10-21T20:13:29.876Z,96979.38
2022-10-21T20:16:42.283Z,96990.00
2022-10-21T20:19:47.524Z,97002.28
2022-10-21T20:22:49.037Z,97016.63
2022-10-21T20:25:54.178Z,97002.47
2022-10-21T20:28:56.464Z,97008.44
2022-10-21T20:32:01.194Z,97008.84
2022-10-21T20:35:02.912Z,97029.66
2022-10-21T20:38:04.423Z,97039.06
2022-10-21T20:41:09.425Z,97071.38
2022-10-21T20:44:16.045Z,97083.66
2022-10-21T20:47:19.084Z,97092.66
2022-10-21T20:50:20.555Z,97090.44
2022-10-21T20:53:22.474Z,97057.69
2022-10-21T20:56:33.550Z,97062.41
2022-10-21T20:59:38.104Z,97067.13
2022-10-21T21:02:39.640Z,97066.06
2022-10-21T21:05:41.107Z,97067.72
2022-10-21T21:08:53.495Z,97062.00
2022-10-21T21:12:04.557Z,97067.53
2022-10-21T21:15:06.709Z,97072.84
2022-10-21T21:18:11.452Z,97073.22
2022-10-21T21:21:15.072Z,97063.63
2022-10-21T21:24:16.553Z,97056.06
2022-10-21T21:27:19.203Z,97048.50
2022-10-21T21:30:20.632Z,97060.94
2022-10-21T21:33:22.204Z,97060.13
2022-10-21T21:36:24.291Z,97075.50
2022-10-21T21:39:25.949Z,97067.72
2022-10-21T21:42:27.432Z,97068.72
2022-10-21T21:45:28.892Z,97052.56
2022-10-21T21:48:33.928Z,97048.28
2022-10-21T21:51:36.657Z,97060.34
2022-10-21T21:54:38.217Z,97059.13
2022-10-21T21:57:39.749Z,97043.97
2022-10-21T22:00:41.260Z,97048.91
2022-10-21T22:03:42.962Z,97049.91
2022-10-21T22:06:44.461Z,97054.59
2022-10-21T22:09:45.897Z,97051.34
2022-10-21T22:12:47.733Z,97050.72
2022-10-21T22:15:51.953Z,97053.38
2022-10-21T22:18:54.472Z,97054.59
2022-10-21T22:21:55.936Z,97056.84
2022-10-21T22:24:57.430Z,97063.56
2022-10-21T22:27:58.876Z,97076.28
2022-10-21T22:31:13.053Z,97069.69
2022-10-21T22:34:14.549Z,97069.88
2022-10-21T22:37:16.018Z,97084.59
2022-10-21T22:40:17.626Z,97088.72
2022-10-21T22:43:19.124Z,97093.41
2022-10-21T22:46:32.831Z,97079.50
2022-10-21T22:49:35.548Z,97079.91
2022-10-21T22:52:37.329Z,97087.69
2022-10-21T22:55:39.684Z,97090.72
2022-10-21T22:58:41.223Z,97088.50
2022-10-21T23:01:42.797Z,97081.53
2022-10-21T23:04:44.399Z,97072.09
2022-10-21T23:07:45.863Z,97084.75
2022-10-21T23:10:48.842Z,97060.44
2022-10-21T23:14:02.078Z,97034.88
2022-10-21T23:17:04.870Z,97037.94
2022-10-21T23:20:07.004Z,97026.31
2022-10-21T23:23:09.666Z,97016.88
2022-10-21T23:26:11.144Z,97013.59
2022-10-21T23:29:12.649Z,97027.09
2022-10-21T23:32:14.139Z,97037.94
2022-10-21T23:35:16.036Z,97047.13
2022-10-21T23:38:17.684Z,97037.75
2022-10-21T23:41:19.148Z,97029.38
2022-10-21T23:44:20.632Z,97012.00
2022-10-21T23:47:22.153Z,97032.44
2022-10-21T23:50:23.755Z,97043.28
2022-10-21T23:53:25.265Z,97055.72
2022-10-21T23:56:26.823Z,97048.56
2022-10-21T23:59:28.249Z,97029.56
